sensor_id;sensor_type;location;lat;lon;timestamp;pressure;altitude;pressure_sealevel;temperature;humidity
1652;BME280;823;49.028;8.454;2023-03-16T00:01:48;100876.84;;;5.72;59.03
1652;BME280;823;49.028;8.454;2023-03-16T00:06:49;100878.53;;;5.72;59.29
1652;BME280;823;49.028;8.454;2023-03-16T00:11:49;100887.13;;;5.71;58.91
1652;BME280;823;49.028;8.454;2023-03-16T00:16:49;100893.19;;;5.51;59.43
1652;BME280;823;49.028;8.454;2023-03-16T00:21:50;100897.44;;;5.58;59.03
1652;BME280;823;49.028;8.454;2023-03-16T00:26:50;100901.75;;;5.47;59.11
1652;BME280;823;49.028;8.454;2023-03-16T00:31:53;100900.00;;;5.51;59.07
1652;BME280;823;49.028;8.454;2023-03-16T00:36:54;100900.88;;;5.50;59.26
1652;BME280;823;49.028;8.454;2023-03-16T00:41:54;100883.78;;;5.42;58.86
1652;BME280;823;49.028;8.454;2023-03-16T00:46:57;100880.41;;;5.36;58.99
1652;BME280;823;49.028;8.454;2023-03-16T00:51:57;100885.53;;;5.33;59.55
1652;BME280;823;49.028;8.454;2023-03-16T00:56:58;100879.53;;;5.38;59.02
1652;BME280;823;49.028;8.454;2023-03-16T01:01:59;100882.13;;;5.37;59.20
1652;BME280;823;49.028;8.454;2023-03-16T01:06:59;100867.59;;;5.34;58.69
1652;BME280;823;49.028;8.454;2023-03-16T01:11:59;100860.78;;;5.25;59.06
1652;BME280;823;49.028;8.454;2023-03-16T01:17:00;100861.69;;;5.15;58.65
1652;BME280;823;49.028;8.454;2023-03-16T01:22:02;100857.44;;;5.03;58.74
1652;BME280;823;49.028;8.454;2023-03-16T01:27:04;100861.72;;;4.93;58.98
1652;BME280;823;49.028;8.454;2023-03-16T01:32:05;100863.44;;;4.85;59.65
1652;BME280;823;49.028;8.454;2023-03-16T01:37:06;100850.66;;;4.81;59.29
1652;BME280;823;49.028;8.454;2023-03-16T01:42:06;100832.72;;;4.79;59.55
1652;BME280;823;49.028;8.454;2023-03-16T01:47:07;100818.19;;;4.70;60.33
1652;BME280;823;49.028;8.454;2023-03-16T01:52:09;100831.03;;;4.75;61.10
1652;BME280;823;49.028;8.454;2023-03-16T01:57:20;100846.38;;;4.90;61.17
1652;BME280;823;49.028;8.454;2023-03-16T02:02:23;100838.66;;;4.92;61.30
1652;BME280;823;49.028;8.454;2023-03-16T02:07:26;100832.69;;;4.87;61.06
1652;BME280;823;49.028;8.454;2023-03-16T02:12:28;100829.22;;;5.05;60.50
1652;BME280;823;49.028;8.454;2023-03-16T02:17:30;100830.06;;;5.13;59.99
1652;BME280;823;49.028;8.454;2023-03-16T02:22:31;100810.41;;;5.10;59.45
1652;BME280;823;49.028;8.454;2023-03-16T02:27:47;100814.69;;;5.07;59.21
1652;BME280;823;49.028;8.454;2023-03-16T02:32:49;100812.16;;;4.98;59.05
1652;BME280;823;49.028;8.454;2023-03-16T02:37:52;100799.38;;;4.87;59.34
1652;BME280;823;49.028;8.454;2023-03-16T02:43:30;100792.53;;;4.87;59.32
1652;BME280;823;49.028;8.454;2023-03-16T02:53:39;100794.28;;;4.82;60.26
1652;BME280;823;49.028;8.454;2023-03-16T02:58:39;100789.13;;;4.77;60.36
1652;BME280;823;49.028;8.454;2023-03-16T03:03:40;100792.53;;;4.89;61.03
1652;BME280;823;49.028;8.454;2023-03-16T03:08:40;100784.03;;;4.79;61.49
1652;BME280;823;49.028;8.454;2023-03-16T03:13:41;100784.88;;;4.80;61.53
1652;BME280;823;49.028;8.454;2023-03-16T03:18:43;100770.28;;;4.99;60.72
1652;BME280;823;49.028;8.454;2023-03-16T03:23:43;100764.31;;;4.93;60.92
1652;BME280;823;49.028;8.454;2023-03-16T03:28:45;100752.41;;;4.83;60.98
1652;BME280;823;49.028;8.454;2023-03-16T03:33:46;100738.66;;;4.97;60.38
1652;BME280;823;49.028;8.454;2023-03-16T03:38:47;100754.84;;;5.06;60.06
1652;BME280;823;49.028;8.454;2023-03-16T03:43:48;100749.81;;;4.88;60.65
1652;BME280;823;49.028;8.454;2023-03-16T03:48:48;100748.09;;;4.90;60.82
1652;BME280;823;49.028;8.454;2023-03-16T03:53:49;100744.63;;;5.02;60.63
1652;BME280;823;49.028;8.454;2023-03-16T03:58:49;100737.06;;;4.69;61.60
1652;BME280;823;49.028;8.454;2023-03-16T04:03:50;100736.97;;;4.99;60.72
1652;BME280;823;49.028;8.454;2023-03-16T04:08:50;100739.53;;;4.97;60.68
1652;BME280;823;49.028;8.454;2023-03-16T04:13:51;100734.41;;;4.94;60.93
1652;BME280;823;49.028;8.454;2023-03-16T04:18:53;100730.94;;;5.09;60.33
1652;BME280;823;49.028;8.454;2023-03-16T04:23:53;100738.63;;;5.06;60.59
1652;BME280;823;49.028;8.454;2023-03-16T04:28:53;100735.06;;;5.32;59.50
1652;BME280;823;49.028;8.454;2023-03-16T04:33:54;100726.53;;;5.33;59.41
1652;BME280;823;49.028;8.454;2023-03-16T04:38:54;100725.66;;;5.34;59.28
1652;BME280;823;49.028;8.454;2023-03-16T04:43:55;100723.06;;;5.37;58.63
1652;BME280;823;49.028;8.454;2023-03-16T04:48:56;100727.38;;;5.33;58.89
1652;BME280;823;49.028;8.454;2023-03-16T04:53:57;100721.47;;;5.20;58.86
1652;BME280;823;49.028;8.454;2023-03-16T04:58:57;100718.91;;;5.20;59.18
1652;BME280;823;49.028;8.454;2023-03-16T05:03:57;100735.19;;;5.13;59.48
1652;BME280;823;49.028;8.454;2023-03-16T05:08:58;100720.66;;;5.15;58.94
1652;BME280;823;49.028;8.454;2023-03-16T05:13:59;100729.19;;;5.09;59.06
1652;BME280;823;49.028;8.454;2023-03-16T05:19:01;100729.22;;;5.06;59.02
1652;BME280;823;49.028;8.454;2023-03-16T05:24:01;100722.41;;;5.02;59.36
1652;BME280;823;49.028;8.454;2023-03-16T05:29:01;100725.91;;;4.89;59.63
1652;BME280;823;49.028;8.454;2023-03-16T05:34:02;100721.63;;;4.82;59.34
1652;BME280;823;49.028;8.454;2023-03-16T05:39:02;100718.25;;;4.78;59.37
1652;BME280;823;49.028;8.454;2023-03-16T05:44:02;100712.28;;;4.73;59.39
1652;BME280;823;49.028;8.454;2023-03-16T05:49:03;100710.59;;;4.70;59.67
1652;BME280;823;49.028;8.454;2023-03-16T05:54:03;100716.56;;;4.71;59.75
1652;BME280;823;49.028;8.454;2023-03-16T05:59:04;100715.75;;;4.63;60.40
1652;BME280;823;49.028;8.454;2023-03-16T06:04:04;100715.66;;;4.81;60.60
1652;BME280;823;49.028;8.454;2023-03-16T06:09:04;100711.31;;;4.95;59.74
1652;BME280;823;49.028;8.454;2023-03-16T06:14:04;100715.59;;;4.98;60.33
1652;BME280;823;49.028;8.454;2023-03-16T06:19:05;100717.31;;;4.99;59.93
1652;BME280;823;49.028;8.454;2023-03-16T06:24:05;100719.84;;;5.04;59.73
1652;BME280;823;49.028;8.454;2023-03-16T06:29:08;100724.09;;;5.13;59.84
1652;BME280;823;49.028;8.454;2023-03-16T06:34:08;100717.94;;;5.37;60.16
1652;BME280;823;49.028;8.454;2023-03-16T06:39:08;100716.06;;;5.60;60.13
1652;BME280;823;49.028;8.454;2023-03-16T06:44:09;100715.06;;;5.80;60.19
1652;BME280;823;49.028;8.454;2023-03-16T06:49:10;100714.84;;;6.12;60.13
1652;BME280;823;49.028;8.454;2023-03-16T06:54:10;100716.28;;;6.40;59.61
1652;BME280;823;49.028;8.454;2023-03-16T06:59:11;100710.78;;;6.72;59.09
1652;BME280;823;49.028;8.454;2023-03-16T07:04:11;100706.13;;;6.99;58.31
1652;BME280;823;49.028;8.454;2023-03-16T07:09:12;100715.34;;;7.17;57.58
1652;BME280;823;49.028;8.454;2023-03-16T07:14:12;100716.84;;;7.32;55.55
1652;BME280;823;49.028;8.454;2023-03-16T07:19:12;100719.16;;;7.49;53.94
1652;BME280;823;49.028;8.454;2023-03-16T07:24:13;100719.75;;;7.68;53.72
1652;BME280;823;49.028;8.454;2023-03-16T07:29:14;100722.00;;;7.88;52.85
1652;BME280;823;49.028;8.454;2023-03-16T07:34:16;100725.28;;;7.98;52.04
1652;BME280;823;49.028;8.454;2023-03-16T07:39:17;100722.44;;;8.13;51.70
1652;BME280;823;49.028;8.454;2023-03-16T07:44:17;100732.94;;;8.51;51.56
1652;BME280;823;49.028;8.454;2023-03-16T07:49:18;100724.03;;;8.67;50.87
1652;BME280;823;49.028;8.454;2023-03-16T07:54:18;100721.34;;;8.72;50.97
1652;BME280;823;49.028;8.454;2023-03-16T07:59:18;100726.25;;;8.86;50.31
1652;BME280;823;49.028;8.454;2023-03-16T08:04:20;100707.84;;;9.03;49.34
1652;BME280;823;49.028;8.454;2023-03-16T08:09:21;100701.34;;;9.24;49.19
1652;BME280;823;49.028;8.454;2023-03-16T08:14:21;100696.50;;;9.48;48.83
1652;BME280;823;49.028;8.454;2023-03-16T08:19:22;100689.44;;;9.56;48.22
1652;BME280;823;49.028;8.454;2023-03-16T08:24:24;100699.09;;;9.84;49.11
1652;BME280;823;49.028;8.454;2023-03-16T08:29:25;100694.81;;;10.16;47.19
1652;BME280;823;49.028;8.454;2023-03-16T08:34:26;100694.69;;;10.22;47.75
1652;BME280;823;49.028;8.454;2023-03-16T08:39:26;100693.56;;;10.31;46.95
1652;BME280;823;49.028;8.454;2023-03-16T08:44:29;100693.97;;;10.50;47.26
1652;BME280;823;49.028;8.454;2023-03-16T08:49:29;100701.47;;;10.57;46.13
1652;BME280;823;49.028;8.454;2023-03-16T08:54:30;100694.69;;;10.85;45.29
1652;BME280;823;49.028;8.454;2023-03-16T08:59:31;100684.34;;;10.85;44.98
1652;BME280;823;49.028;8.454;2023-03-16T09:04:31;100674.56;;;11.23;45.25
1652;BME280;823;49.028;8.454;2023-03-16T09:09:32;100667.00;;;11.44;45.16
1652;BME280;823;49.028;8.454;2023-03-16T09:14:33;100662.72;;;11.43;44.26
1652;BME280;823;49.028;8.454;2023-03-16T09:19:34;100662.13;;;11.61;44.72
1652;BME280;823;49.028;8.454;2023-03-16T09:24:34;100654.47;;;11.83;43.02
1652;BME280;823;49.028;8.454;2023-03-16T09:29:35;100661.94;;;11.94;44.65
1652;BME280;823;49.028;8.454;2023-03-16T09:34:35;100659.06;;;12.27;42.94
1652;BME280;823;49.028;8.454;2023-03-16T09:39:35;100665.28;;;12.47;42.72
1652;BME280;823;49.028;8.454;2023-03-16T09:45:01;100655.69;;;12.72;42.19
1652;BME280;823;49.028;8.454;2023-03-16T09:50:07;100652.94;;;12.99;41.09
1652;BME280;823;49.028;8.454;2023-03-16T09:55:22;100646.72;;;13.03;41.78
1652;BME280;823;49.028;8.454;2023-03-16T10:00:38;100633.13;;;12.97;40.85
1652;BME280;823;49.028;8.454;2023-03-16T10:05:41;100613.44;;;12.91;40.61
1652;BME280;823;49.028;8.454;2023-03-16T10:16:06;100616.88;;;13.36;42.93
1652;BME280;823;49.028;8.454;2023-03-16T10:21:11;100597.34;;;13.48;41.54
1652;BME280;823;49.028;8.454;2023-03-16T10:26:35;100595.91;;;13.40;39.20
1652;BME280;823;49.028;8.454;2023-03-16T10:31:40;100599.28;;;13.63;39.23
1652;BME280;823;49.028;8.454;2023-03-16T10:36:43;100604.88;;;13.74;39.74
1652;BME280;823;49.028;8.454;2023-03-16T10:41:44;100613.31;;;13.59;40.08
1652;BME280;823;49.028;8.454;2023-03-16T10:46:56;100614.88;;;13.84;39.25
1652;BME280;823;49.028;8.454;2023-03-16T10:51:58;100602.97;;;13.99;38.71
1652;BME280;823;49.028;8.454;2023-03-16T10:57:11;100592.56;;;14.18;36.67
1652;BME280;823;49.028;8.454;2023-03-16T11:02:18;100584.56;;;14.03;35.59
1652;BME280;823;49.028;8.454;2023-03-16T11:07:21;100576.34;;;14.51;36.60
1652;BME280;823;49.028;8.454;2023-03-16T11:12:29;100566.44;;;14.78;36.64
1652;BME280;823;49.028;8.454;2023-03-16T11:17:35;100568.72;;;15.21;35.01
1652;BME280;823;49.028;8.454;2023-03-16T11:22:37;100561.28;;;14.95;34.04
1652;BME280;823;49.028;8.454;2023-03-16T11:28:04;100560.44;;;15.30;33.56
1652;BME280;823;49.028;8.454;2023-03-16T11:33:14;100558.91;;;15.43;32.57
1652;BME280;823;49.028;8.454;2023-03-16T11:38:18;100533.97;;;15.55;34.08
1652;BME280;823;49.028;8.454;2023-03-16T11:43:43;100540.66;;;15.43;32.28
1652;BME280;823;49.028;8.454;2023-03-16T11:54:16;100529.59;;;15.56;32.07
1652;BME280;823;49.028;8.454;2023-03-16T11:59:45;100526.78;;;15.43;31.28
1652;BME280;823;49.028;8.454;2023-03-16T12:05:19;100504.94;;;15.45;31.90
1652;BME280;823;49.028;8.454;2023-03-16T12:10:28;100505.06;;;15.60;30.96
1652;BME280;823;49.028;8.454;2023-03-16T12:15:36;100500.50;;;15.81;32.04
1652;BME280;823;49.028;8.454;2023-03-16T12:21:00;100503.41;;;16.08;29.28
1652;BME280;823;49.028;8.454;2023-03-16T12:26:02;100485.38;;;15.88;29.56
1652;BME280;823;49.028;8.454;2023-03-16T12:31:15;100484.81;;;15.65;30.86
1652;BME280;823;49.028;8.454;2023-03-16T12:36:29;100475.41;;;15.78;30.97
1652;BME280;823;49.028;8.454;2023-03-16T12:41:48;100473.53;;;15.98;29.73
1652;BME280;823;49.028;8.454;2023-03-16T12:47:00;100466.19;;;15.89;30.67
1652;BME280;823;49.028;8.454;2023-03-16T12:52:08;100455.34;;;15.96;29.76
1652;BME280;823;49.028;8.454;2023-03-16T12:57:15;100452.25;;;15.90;28.80
1652;BME280;823;49.028;8.454;2023-03-16T13:02:24;100451.13;;;16.26;29.04
1652;BME280;823;49.028;8.454;2023-03-16T13:07:28;100450.00;;;16.46;28.46
1652;BME280;823;49.028;8.454;2023-03-16T13:18:40;100420.22;;;16.34;28.29
1652;BME280;823;49.028;8.454;2023-03-16T13:24:11;100418.41;;;16.04;28.16
1652;BME280;823;49.028;8.454;2023-03-16T13:29:24;100421.88;;;16.51;27.28
1652;BME280;823;49.028;8.454;2023-03-16T13:34:29;100413.25;;;16.49;27.22
1652;BME280;823;49.028;8.454;2023-03-16T13:39:32;100414.66;;;16.40;27.46
1652;BME280;823;49.028;8.454;2023-03-16T13:44:32;100406.88;;;16.55;26.92
1652;BME280;823;49.028;8.454;2023-03-16T13:49:48;100390.94;;;16.29;27.22
1652;BME280;823;49.028;8.454;2023-03-16T13:54:53;100382.19;;;16.30;27.77
1652;BME280;823;49.028;8.454;2023-03-16T14:00:05;100384.50;;;16.50;27.51
1652;BME280;823;49.028;8.454;2023-03-16T14:05:19;100356.81;;;16.62;27.13
1652;BME280;823;49.028;8.454;2023-03-16T14:10:26;100347.09;;;16.95;26.03
1652;BME280;823;49.028;8.454;2023-03-16T14:15:29;100356.63;;;16.65;26.75
1652;BME280;823;49.028;8.454;2023-03-16T14:20:29;100351.44;;;16.80;26.97
1652;BME280;823;49.028;8.454;2023-03-16T14:25:29;100356.38;;;16.84;27.06
1652;BME280;823;49.028;8.454;2023-03-16T14:30:30;100335.84;;;16.78;27.03
1652;BME280;823;49.028;8.454;2023-03-16T14:35:57;100332.16;;;16.97;26.48
1652;BME280;823;49.028;8.454;2023-03-16T14:41:09;100332.81;;;17.29;26.72
1652;BME280;823;49.028;8.454;2023-03-16T14:46:14;100325.84;;;17.43;26.97
1652;BME280;823;49.028;8.454;2023-03-16T14:51:16;100322.34;;;17.29;26.71
1652;BME280;823;49.028;8.454;2023-03-16T14:56:17;100313.34;;;17.48;27.67
1652;BME280;823;49.028;8.454;2023-03-16T15:01:17;100329.06;;;17.33;27.93
1652;BME280;823;49.028;8.454;2023-03-16T15:06:18;100314.72;;;17.53;27.41
1652;BME280;823;49.028;8.454;2023-03-16T15:11:19;100320.50;;;17.59;27.86
1652;BME280;823;49.028;8.454;2023-03-16T15:16:23;100319.19;;;17.66;28.55
1652;BME280;823;49.028;8.454;2023-03-16T15:21:26;100310.63;;;17.49;28.35
1652;BME280;823;49.028;8.454;2023-03-16T15:26:30;100320.16;;;17.36;28.65
1652;BME280;823;49.028;8.454;2023-03-16T15:31:31;100313.66;;;17.29;29.20
1652;BME280;823;49.028;8.454;2023-03-16T15:36:32;100321.31;;;17.17;30.23
1652;BME280;823;49.028;8.454;2023-03-16T15:47:29;100302.13;;;16.90;29.94
1652;BME280;823;49.028;8.454;2023-03-16T15:52:32;100299.41;;;16.91;30.62
1652;BME280;823;49.028;8.454;2023-03-16T15:57:34;100293.69;;;16.84;30.30
1652;BME280;823;49.028;8.454;2023-03-16T16:02:34;100290.88;;;16.73;30.77
1652;BME280;823;49.028;8.454;2023-03-16T16:07:35;100281.00;;;16.64;31.06
1652;BME280;823;49.028;8.454;2023-03-16T16:12:35;100277.66;;;16.62;31.28
1652;BME280;823;49.028;8.454;2023-03-16T16:17:35;100275.84;;;16.48;32.18
1652;BME280;823;49.028;8.454;2023-03-16T16:22:36;100276.06;;;16.45;31.81
1652;BME280;823;49.028;8.454;2023-03-16T16:27:38;100273.47;;;16.14;31.93
1652;BME280;823;49.028;8.454;2023-03-16T16:32:39;100266.03;;;16.23;32.34
1652;BME280;823;49.028;8.454;2023-03-16T16:37:39;100260.09;;;16.05;32.96
1652;BME280;823;49.028;8.454;2023-03-16T16:42:39;100270.69;;;15.87;32.51
1652;BME280;823;49.028;8.454;2023-03-16T16:47:40;100267.31;;;15.53;32.89
1652;BME280;823;49.028;8.454;2023-03-16T16:52:40;100259.75;;;15.48;33.43
1652;BME280;823;49.028;8.454;2023-03-16T16:57:42;100267.53;;;15.34;32.56
1652;BME280;823;49.028;8.454;2023-03-16T17:02:46;100266.56;;;15.35;33.34
1652;BME280;823;49.028;8.454;2023-03-16T17:07:47;100266.25;;;15.41;33.38
1652;BME280;823;49.028;8.454;2023-03-16T17:12:49;100269.59;;;15.11;33.76
1652;BME280;823;49.028;8.454;2023-03-16T17:17:54;100269.50;;;15.13;34.51
1652;BME280;823;49.028;8.454;2023-03-16T17:22:57;100267.84;;;15.12;34.00
1652;BME280;823;49.028;8.454;2023-03-16T17:27:57;100270.41;;;14.96;34.15
1652;BME280;823;49.028;8.454;2023-03-16T17:33:02;100268.84;;;14.76;34.99
1652;BME280;823;49.028;8.454;2023-03-16T17:38:17;100268.34;;;14.69;34.59
1652;BME280;823;49.028;8.454;2023-03-16T17:43:20;100259.94;;;14.46;35.23
1652;BME280;823;49.028;8.454;2023-03-16T17:48:22;100264.66;;;14.56;34.83
1652;BME280;823;49.028;8.454;2023-03-16T17:53:25;100260.47;;;14.53;34.86
1652;BME280;823;49.028;8.454;2023-03-16T17:58:28;100255.50;;;14.31;35.42
1652;BME280;823;49.028;8.454;2023-03-16T18:03:29;100248.84;;;14.43;35.76
1652;BME280;823;49.028;8.454;2023-03-16T18:08:29;100235.94;;;14.24;36.23
1652;BME280;823;49.028;8.454;2023-03-16T18:13:35;100230.19;;;14.17;35.24
1652;BME280;823;49.028;8.454;2023-03-16T18:18:37;100230.03;;;14.20;35.46
1652;BME280;823;49.028;8.454;2023-03-16T18:23:38;100235.19;;;14.04;36.33
1652;BME280;823;49.028;8.454;2023-03-16T18:28:39;100237.31;;;13.96;36.58
1652;BME280;823;49.028;8.454;2023-03-16T18:33:39;100237.53;;;13.91;35.81
1652;BME280;823;49.028;8.454;2023-03-16T18:38:45;100231.19;;;13.79;36.20
1652;BME280;823;49.028;8.454;2023-03-16T18:43:46;100224.81;;;13.68;35.76
1652;BME280;823;49.028;8.454;2023-03-16T18:48:46;100218.78;;;13.67;35.93
1652;BME280;823;49.028;8.454;2023-03-16T18:53:47;100225.13;;;13.61;35.67
1652;BME280;823;49.028;8.454;2023-03-16T18:58:49;100214.44;;;13.68;35.93
1652;BME280;823;49.028;8.454;2023-03-16T19:03:50;100219.28;;;13.39;36.09
1652;BME280;823;49.028;8.454;2023-03-16T19:08:52;100213.56;;;13.50;36.19
1652;BME280;823;49.028;8.454;2023-03-16T19:13:53;100209.00;;;13.55;35.26
1652;BME280;823;49.028;8.454;2023-03-16T19:18:53;100208.81;;;13.40;36.05
1652;BME280;823;49.028;8.454;2023-03-16T19:23:56;100204.38;;;13.42;35.66
1652;BME280;823;49.028;8.454;2023-03-16T19:28:58;100209.16;;;13.33;35.91
1652;BME280;823;49.028;8.454;2023-03-16T19:33:59;100214.34;;;13.33;36.38
1652;BME280;823;49.028;8.454;2023-03-16T19:38:59;100225.88;;;13.27;36.15
1652;BME280;823;49.028;8.454;2023-03-16T19:44:18;100230.06;;;13.29;36.42
1652;BME280;823;49.028;8.454;2023-03-16T19:49:22;100220.59;;;13.09;37.16
1652;BME280;823;49.028;8.454;2023-03-16T19:59:28;100202.78;;;13.02;37.48
1652;BME280;823;49.028;8.454;2023-03-16T20:04:30;100204.25;;;13.07;37.58
1652;BME280;823;49.028;8.454;2023-03-16T20:09:30;100194.22;;;13.00;37.82
1652;BME280;823;49.028;8.454;2023-03-16T20:14:31;100199.63;;;12.95;38.16
1652;BME280;823;49.028;8.454;2023-03-16T20:19:32;100186.25;;;12.85;38.34
1652;BME280;823;49.028;8.454;2023-03-16T20:24:33;100178.94;;;12.74;38.48
1652;BME280;823;49.028;8.454;2023-03-16T20:29:34;100168.97;;;12.65;38.93
1652;BME280;823;49.028;8.454;2023-03-16T20:34:34;100178.84;;;12.57;39.33
1652;BME280;823;49.028;8.454;2023-03-16T20:39:35;100183.41;;;12.52;39.60
1652;BME280;823;49.028;8.454;2023-03-16T20:44:37;100197.38;;;12.49;39.99
1652;BME280;823;49.028;8.454;2023-03-16T20:49:37;100199.53;;;12.39;40.77
1652;BME280;823;49.028;8.454;2023-03-16T20:54:38;100184.56;;;12.25;41.09
1652;BME280;823;49.028;8.454;2023-03-16T20:59:38;100175.88;;;12.06;41.71
1652;BME280;823;49.028;8.454;2023-03-16T21:04:39;100179.84;;;11.94;42.47
1652;BME280;823;49.028;8.454;2023-03-16T21:09:41;100195.78;;;11.83;43.02
1652;BME280;823;49.028;8.454;2023-03-16T21:14:41;100191.09;;;11.71;43.32
1652;BME280;823;49.028;8.454;2023-03-16T21:19:42;100194.66;;;11.68;43.51
1652;BME280;823;49.028;8.454;2023-03-16T21:24:42;100197.72;;;11.57;44.22
1652;BME280;823;49.028;8.454;2023-03-16T21:29:42;100197.19;;;11.49;44.48
1652;BME280;823;49.028;8.454;2023-03-16T21:34:43;100191.63;;;11.36;44.35
1652;BME280;823;49.028;8.454;2023-03-16T21:39:47;100188.44;;;11.30;44.78
1652;BME280;823;49.028;8.454;2023-03-16T21:44:47;100191.06;;;11.28;45.09
1652;BME280;823;49.028;8.454;2023-03-16T21:49:48;100177.84;;;11.14;45.35
1652;BME280;823;49.028;8.454;2023-03-16T21:54:49;100181.56;;;11.06;45.72
1652;BME280;823;49.028;8.454;2023-03-16T21:59:50;100173.97;;;11.02;46.16
1652;BME280;823;49.028;8.454;2023-03-16T22:04:51;100170.00;;;10.93;46.59
1652;BME280;823;49.028;8.454;2023-03-16T22:09:52;100174.63;;;10.85;46.83
1652;BME280;823;49.028;8.454;2023-03-16T22:14:52;100163.66;;;10.78;46.99
1652;BME280;823;49.028;8.454;2023-03-16T22:19:52;100161.25;;;10.73;47.17
1652;BME280;823;49.028;8.454;2023-03-16T22:24:52;100158.03;;;10.67;46.79
1652;BME280;823;49.028;8.454;2023-03-16T22:29:53;100145.38;;;10.59;47.33
1652;BME280;823;49.028;8.454;2023-03-16T22:34:55;100133.50;;;10.55;47.68
1652;BME280;823;49.028;8.454;2023-03-16T22:39:55;100131.19;;;10.47;47.98
1652;BME280;823;49.028;8.454;2023-03-16T22:44:57;100123.81;;;10.36;48.32
1652;BME280;823;49.028;8.454;2023-03-16T22:49:58;100129.88;;;10.35;48.48
1652;BME280;823;49.028;8.454;2023-03-16T22:54:59;100132.66;;;10.29;49.01
1652;BME280;823;49.028;8.454;2023-03-16T23:00:00;100120.91;;;10.20;49.08
1652;BME280;823;49.028;8.454;2023-03-16T23:05:20;100131.44;;;10.14;49.34
1652;BME280;823;49.028;8.454;2023-03-16T23:10:23;100131.75;;;10.07;49.39
1652;BME280;823;49.028;8.454;2023-03-16T23:15:29;100121.59;;;10.00;49.49
1652;BME280;823;49.028;8.454;2023-03-16T23:20:30;100114.84;;;9.96;49.90
1652;BME280;823;49.028;8.454;2023-03-16T23:25:31;100115.16;;;9.87;50.33
1652;BME280;823;49.028;8.454;2023-03-16T23:30:31;100102.59;;;9.78;50.36
1652;BME280;823;49.028;8.454;2023-03-16T23:35:32;100100.19;;;9.71;50.80
1652;BME280;823;49.028;8.454;2023-03-16T23:40:35;100086.41;;;9.73;50.81
1652;BME280;823;49.028;8.454;2023-03-16T23:45:40;100090.94;;;9.66;51.13
1652;BME280;823;49.028;8.454;2023-03-16T23:50:41;100085.03;;;9.62;50.95
1652;BME280;823;49.028;8.454;2023-03-16T23:55:43;100086.69;;;9.63;51.10
